Time;durP1;ratioP1;P1;durP2;ratioP2;P2;SDS_P1;SDS_P2;PMS_P1;PMS_P2;Temp;Humidity;BMP_temperature;BMP_pressure;BME280_temperature;BME280_humidity;BME280_pressure;Samples;Min_cycle;Max_cycle;Signal;HPM_P1;HPM_P2
2021/06/18 00:00:18;;;;;;;7.63;6.13;;;31.00;46.80;;;;;;5054344;28;20196;-66
2021/06/18 00:02:44;;;;;;;8.13;6.53;;;31.00;46.90;;;;;;5062043;28;20056;-63
2021/06/18 00:05:10;;;;;;;7.68;5.88;;;31.10;47.00;;;;;;5056110;28;20435;-62
2021/06/18 00:07:36;;;;;;;7.03;5.68;;;31.10;47.00;;;;;;5061755;28;20107;-62
2021/06/18 00:10:05;;;;;;;7.40;5.80;;;31.10;47.00;;;;;;5065184;28;20098;-63
2021/06/18 00:12:31;;;;;;;7.97;5.70;;;31.10;47.00;;;;;;5067225;28;20028;-63
2021/06/18 00:14:59;;;;;;;6.57;5.55;;;31.10;47.00;;;;;;5072479;28;20127;-62
2021/06/18 00:17:26;;;;;;;7.40;5.60;;;31.10;46.90;;;;;;5080722;28;20024;-63
2021/06/18 00:19:51;;;;;;;7.30;5.97;;;31.10;46.90;;;;;;5072626;28;20087;-62
2021/06/18 00:22:17;;;;;;;7.38;5.32;;;31.10;46.80;;;;;;5052024;28;20041;-65
2021/06/18 00:24:42;;;;;;;6.47;5.05;;;31.10;46.90;;;;;;5059935;28;20032;-62
2021/06/18 00:27:08;;;;;;;7.30;5.35;;;31.10;46.80;;;;;;5052105;28;20036;-64
2021/06/18 00:29:34;;;;;;;7.32;5.55;;;31.10;46.60;;;;;;5053246;28;20013;-64
2021/06/18 00:32:00;;;;;;;7.45;5.65;;;31.00;46.60;;;;;;5056634;28;20501;-63
2021/06/18 00:34:25;;;;;;;6.38;4.80;;;31.00;46.70;;;;;;5063214;28;20398;-64
2021/06/18 00:36:51;;;;;;;7.93;5.88;;;31.00;46.80;;;;;;5056845;28;20506;-63
2021/06/18 00:39:16;;;;;;;7.65;5.45;;;31.00;46.80;;;;;;5046198;28;20503;-61
2021/06/18 00:41:42;;;;;;;6.95;5.07;;;30.90;46.70;;;;;;5050719;28;20056;-62
2021/06/18 00:44:08;;;;;;;7.68;5.45;;;30.80;46.70;;;;;;5061189;28;20060;-62
2021/06/18 00:46:33;;;;;;;6.85;5.15;;;30.80;46.70;;;;;;5062393;28;20745;-64
2021/06/18 00:48:59;;;;;;;7.05;5.15;;;30.80;46.70;;;;;;5064527;28;20456;-62
2021/06/18 00:51:25;;;;;;;7.07;4.95;;;30.80;46.70;;;;;;5050125;28;20155;-63
2021/06/18 00:53:52;;;;;;;6.57;5.43;;;30.80;46.70;;;;;;5051431;28;20028;-64
2021/06/18 00:56:18;;;;;;;7.32;5.30;;;30.70;46.70;;;;;;5056120;28;20167;-63
2021/06/18 00:58:44;;;;;;;6.30;4.97;;;30.70;46.70;;;;;;5047548;28;20148;-62
2021/06/18 01:01:09;;;;;;;6.95;5.53;;;30.70;46.70;;;;;;5054933;28;20548;-63
2021/06/18 01:03:35;;;;;;;5.97;4.97;;;30.60;46.70;;;;;;5064720;28;20170;-62
2021/06/18 01:06:01;;;;;;;6.90;5.05;;;30.60;46.70;;;;;;5060720;28;20040;-63
2021/06/18 01:08:44;;;;;;;6.25;4.93;;;30.60;46.80;;;;;;5059361;28;20021;-63
2021/06/18 01:11:28;;;;;;;6.07;4.70;;;30.50;46.80;;;;;;5068421;28;20513;-63
2021/06/18 01:14:06;;;;;;;6.00;4.90;;;30.50;46.70;;;;;;5048188;28;20056;-62
2021/06/18 01:16:39;;;;;;;6.35;4.88;;;30.50;46.80;;;;;;5063410;28;20038;-64
2021/06/18 01:19:25;;;;;;;6.07;4.80;;;30.50;46.80;;;;;;5068573;28;20111;-64
2021/06/18 01:21:52;;;;;;;6.65;4.82;;;30.40;46.70;;;;;;5066572;28;20515;-64
2021/06/18 01:24:36;;;;;;;6.00;4.60;;;30.40;46.70;;;;;;5066270;28;20064;-62
2021/06/18 01:27:14;;;;;;;6.50;4.43;;;30.40;46.80;;;;;;5059815;28;20476;-62
2021/06/18 01:29:50;;;;;;;6.63;5.18;;;30.40;46.80;;;;;;5061340;28;20028;-62
2021/06/18 01:32:25;;;;;;;6.30;4.70;;;30.30;46.70;;;;;;5047612;28;20041;-63
2021/06/18 01:34:52;;;;;;;5.57;4.35;;;30.30;46.80;;;;;;5046970;28;20112;-63
2021/06/18 01:37:20;;;;;;;6.07;4.50;;;30.30;46.80;;;;;;5059704;28;20029;-62
2021/06/18 01:39:48;;;;;;;5.95;4.47;;;30.30;46.80;;;;;;5065900;28;20028;-62
2021/06/18 01:42:15;;;;;;;5.80;4.47;;;30.20;46.70;;;;;;5059933;28;20165;-63
2021/06/18 01:44:42;;;;;;;6.72;5.13;;;30.20;46.80;;;;;;5054379;28;20491;-63
2021/06/18 01:47:10;;;;;;;6.18;4.47;;;30.20;46.80;;;;;;5055040;28;20077;-63
2021/06/18 01:49:38;;;;;;;6.20;4.60;;;30.20;46.80;;;;;;5062635;28;20048;-64
2021/06/18 01:52:06;;;;;;;5.73;4.40;;;30.10;46.80;;;;;;5052851;28;20268;-62
2021/06/18 01:54:34;;;;;;;7.25;4.32;;;30.20;46.80;;;;;;5058548;28;20025;-62
2021/06/18 01:57:01;;;;;;;5.90;4.47;;;30.10;46.70;;;;;;5067047;28;20127;-62
2021/06/18 01:59:32;;;;;;;6.03;4.40;;;30.10;46.80;;;;;;5068327;28;20064;-63
2021/06/18 02:01:59;;;;;;;5.03;3.92;;;30.10;46.80;;;;;;5062458;28;20344;-63
2021/06/18 02:04:25;;;;;;;5.82;4.53;;;30.10;46.70;;;;;;5070341;28;20122;-62
2021/06/18 02:06:52;;;;;;;6.28;3.97;;;30.10;46.80;;;;;;5059376;28;20108;-64
2021/06/18 02:09:20;;;;;;;5.15;4.10;;;30.10;46.80;;;;;;5050899;28;20025;-62
2021/06/18 02:11:46;;;;;;;5.70;4.32;;;30.00;46.70;;;;;;5055807;28;20033;-63
2021/06/18 02:14:20;;;;;;;5.82;4.15;;;30.00;46.70;;;;;;5058850;28;20398;-62
2021/06/18 02:16:52;;;;;;;5.05;3.92;;;30.00;46.80;;;;;;5057603;28;20120;-62
2021/06/18 02:19:19;;;;;;;5.40;3.70;;;29.90;46.70;;;;;;5047857;28;20041;-63
2021/06/18 02:21:50;;;;;;;4.93;3.97;;;29.90;46.70;;;;;;5061188;28;20486;-62
2021/06/18 02:24:19;;;;;;;5.85;4.13;;;29.90;46.70;;;;;;5058955;28;20936;-62
2021/06/18 02:26:46;;;;;;;5.60;4.43;;;29.90;46.70;;;;;;5047725;28;20178;-62
2021/06/18 02:29:13;;;;;;;4.68;3.63;;;29.90;46.70;;;;;;5050095;28;20036;-62
2021/06/18 02:31:39;;;;;;;4.50;3.60;;;29.90;46.80;;;;;;5052534;28;20041;-62
2021/06/18 02:34:08;;;;;;;4.72;3.92;;;29.80;46.70;;;;;;5065626;28;20016;-64
2021/06/18 02:36:34;;;;;;;4.60;3.63;;;29.80;46.70;;;;;;5070323;28;20060;-61
2021/06/18 02:38:59;;;;;;;4.40;3.70;;;29.80;46.70;;;;;;5070343;28;20032;-62
2021/06/18 02:41:25;;;;;;;4.63;3.40;;;29.80;46.70;;;;;;5055309;28;20083;-63
2021/06/18 02:43:51;;;;;;;4.47;3.60;;;29.80;46.80;;;;;;5049782;28;20543;-63
2021/06/18 02:46:28;;;;;;;4.45;3.72;;;29.80;46.70;;;;;;5056132;28;20112;-62
2021/06/18 02:48:59;;;;;;;4.80;3.50;;;29.70;46.70;;;;;;5071801;28;20140;-63
2021/06/18 02:51:38;;;;;;;4.93;3.80;;;29.80;46.70;;;;;;5069792;28;20027;-62
2021/06/18 02:54:13;;;;;;;4.60;3.38;;;29.70;46.70;;;;;;5065772;28;20475;-63
2021/06/18 02:56:48;;;;;;;4.63;3.60;;;29.70;46.70;;;;;;5065108;28;20041;-63
2021/06/18 02:59:36;;;;;;;4.82;3.67;;;29.70;46.70;;;;;;5049437;28;20036;-62
2021/06/18 03:02:03;;;;;;;4.38;3.38;;;29.70;46.70;;;;;;5048099;28;20131;-63
2021/06/18 03:04:35;;;;;;;4.45;3.30;;;29.60;46.60;;;;;;5051123;28;20455;-62
2021/06/18 03:07:10;;;;;;;4.65;3.60;;;29.60;46.60;;;;;;5062259;28;20033;-63
2021/06/18 03:09:46;;;;;;;3.78;3.00;;;29.60;46.60;;;;;;5068379;28;20033;-62
2021/06/18 03:12:13;;;;;;;4.15;3.25;;;29.60;46.70;;;;;;5049640;28;20041;-63
2021/06/18 03:14:45;;;;;;;3.72;3.10;;;29.60;46.70;;;;;;5056941;28;20058;-63
2021/06/18 03:17:16;;;;;;;4.70;3.30;;;29.60;46.70;;;;;;5053357;28;20028;-62
2021/06/18 03:19:45;;;;;;;4.50;3.10;;;29.50;46.60;;;;;;5047663;28;20037;-62
2021/06/18 03:22:12;;;;;;;4.40;3.30;;;29.60;46.70;;;;;;5049244;28;20029;-62
2021/06/18 03:24:40;;;;;;;3.80;2.90;;;29.50;46.60;;;;;;5064606;28;20020;-62
2021/06/18 03:27:07;;;;;;;4.50;3.00;;;29.50;46.70;;;;;;5066892;28;20028;-62
2021/06/18 03:29:34;;;;;;;4.32;3.25;;;29.50;46.70;;;;;;5069143;28;20013;-62
2021/06/18 03:32:01;;;;;;;3.50;2.70;;;29.50;46.70;;;;;;5066771;28;20037;-61
2021/06/18 03:34:28;;;;;;;4.38;3.10;;;29.50;46.70;;;;;;5050489;28;20056;-62
2021/06/18 03:36:55;;;;;;;3.90;2.90;;;29.50;46.70;;;;;;5060870;28;20033;-62
2021/06/18 03:39:22;;;;;;;3.70;2.75;;;29.50;47.30;;;;;;5068354;28;20586;-61
2021/06/18 03:41:48;;;;;;;4.30;3.08;;;29.40;46.70;;;;;;5058513;28;20788;-62
2021/06/18 03:44:15;;;;;;;3.85;2.90;;;29.40;46.70;;;;;;5047216;28;20118;-63
2021/06/18 03:46:42;;;;;;;3.60;2.80;;;29.40;47.20;;;;;;5059377;28;20031;-63
2021/06/18 03:49:09;;;;;;;3.42;2.78;;;29.40;46.70;;;;;;5053704;28;20119;-62
2021/06/18 03:51:36;;;;;;;3.50;2.70;;;29.40;46.70;;;;;;5047336;28;20039;-62
2021/06/18 03:54:02;;;;;;;3.65;2.78;;;29.40;46.70;;;;;;5052502;28;20048;-62
2021/06/18 03:56:30;;;;;;;3.97;2.67;;;29.40;46.80;;;;;;5067825;28;20501;-64
2021/06/18 03:58:57;;;;;;;3.83;2.80;;;29.40;46.70;;;;;;5053739;28;20600;-63
2021/06/18 04:01:26;;;;;;;4.40;2.40;;;29.30;43.40;;;;;;5061027;28;20033;-63
2021/06/18 04:03:53;;;;;;;3.53;2.30;;;29.20;42.00;;;;;;5049105;28;20043;-63
2021/06/18 04:06:19;;;;;;;2.80;1.98;;;29.10;41.30;;;;;;5053592;28;20110;-61
2021/06/18 04:08:46;;;;;;;2.78;1.90;;;28.90;40.60;;;;;;5051388;28;20031;-63
2021/06/18 04:11:13;;;;;;;3.00;1.98;;;28.80;40.40;;;;;;5050099;28;20052;-63
2021/06/18 04:13:40;;;;;;;2.55;2.00;;;28.70;40.20;;;;;;5058578;28;20040;-62
2021/06/18 04:16:11;;;;;;;2.22;1.77;;;28.60;40.30;;;;;;5061905;28;20040;-61
2021/06/18 04:18:41;;;;;;;3.03;1.90;;;28.50;40.40;;;;;;5058724;28;20711;-63
2021/06/18 04:21:10;;;;;;;3.00;2.20;;;28.50;40.80;;;;;;5047691;28;20040;-62
2021/06/18 04:23:35;;;;;;;2.85;2.10;;;28.40;40.70;;;;;;5066225;28;20037;-63
2021/06/18 04:26:01;;;;;;;2.83;1.80;;;28.40;40.80;;;;;;5044519;28;20039;-62
2021/06/18 04:28:28;;;;;;;2.83;2.00;;;28.30;40.80;;;;;;5050886;28;20052;-63
2021/06/18 04:30:54;;;;;;;7.18;1.90;;;28.30;40.90;;;;;;5058881;28;20130;-63
2021/06/18 04:33:19;;;;;;;3.53;2.08;;;28.20;41.00;;;;;;5057446;28;20131;-64
2021/06/18 04:35:45;;;;;;;3.35;2.05;;;28.20;41.10;;;;;;5064628;28;20124;-62
2021/06/18 04:38:11;;;;;;;3.97;3.15;;;28.20;41.30;;;;;;5055417;28;20074;-62
2021/06/18 04:40:37;;;;;;;5.07;4.15;;;28.10;41.50;;;;;;5062159;28;20028;-62
2021/06/18 04:43:03;;;;;;;5.20;4.47;;;28.10;41.70;;;;;;5051648;28;20082;-63
2021/06/18 04:45:29;;;;;;;4.75;4.00;;;28.00;41.90;;;;;;5051780;28;20073;-63
2021/06/18 04:47:56;;;;;;;4.10;3.40;;;28.00;42.10;;;;;;5061151;28;20036;-61
2021/06/18 04:50:22;;;;;;;3.88;2.90;;;27.90;42.30;;;;;;5065451;28;20024;-62
2021/06/18 04:52:48;;;;;;;5.05;2.83;;;27.90;42.50;;;;;;5065256;28;20482;-63
2021/06/18 04:55:16;;;;;;;4.07;3.00;;;27.90;42.70;;;;;;5065921;28;20523;-62
2021/06/18 04:57:46;;;;;;;5.65;3.00;;;27.80;42.90;;;;;;5046667;28;20079;-63
2021/06/18 05:00:14;;;;;;;4.95;3.17;;;27.80;43.10;;;;;;5057397;28;20041;-63
2021/06/18 05:02:39;;;;;;;3.63;2.90;;;27.70;43.20;;;;;;5061485;28;20106;-62
2021/06/18 05:05:06;;;;;;;5.82;3.58;;;27.70;43.30;;;;;;5049959;28;20041;-63
2021/06/18 05:07:31;;;;;;;5.80;4.35;;;27.70;43.50;;;;;;5046718;28;20033;-63
2021/06/18 05:09:57;;;;;;;6.22;3.80;;;27.70;43.50;;;;;;5062926;28;20104;-63
2021/06/18 05:12:23;;;;;;;5.15;3.90;;;27.60;43.40;;;;;;5063086;28;20020;-63
2021/06/18 05:14:49;;;;;;;7.40;4.05;;;27.60;43.40;;;;;;5045836;28;20177;-62
2021/06/18 05:17:14;;;;;;;7.25;3.92;;;27.30;43.10;;;;;;5072060;28;20032;-63
2021/06/18 05:19:40;;;;;;;8.55;3.35;;;26.90;43.70;;;;;;5047625;28;20033;-62
2021/06/18 05:22:06;;;;;;;7.15;3.20;;;26.80;44.20;;;;;;5049563;28;20027;-63
2021/06/18 05:24:32;;;;;;;4.80;2.60;;;26.50;44.40;;;;;;5055247;28;20036;-63
2021/06/18 05:26:57;;;;;;;6.80;2.70;;;26.50;44.70;;;;;;5058928;28;20456;-63
2021/06/18 05:29:23;;;;;;;5.70;2.83;;;26.60;44.90;;;;;;5055896;28;20115;-63
2021/06/18 05:31:49;;;;;;;5.57;2.92;;;26.70;45.00;;;;;;5058652;28;20028;-63
2021/06/18 05:34:15;;;;;;;5.63;2.80;;;26.70;44.90;;;;;;5079009;28;20021;-62
2021/06/18 05:36:44;;;;;;;3.97;2.45;;;26.80;44.90;;;;;;5064896;28;20037;-63
2021/06/18 05:39:15;;;;;;;4.88;2.35;;;26.80;44.80;;;;;;5064068;28;20067;-63
2021/06/18 05:41:41;;;;;;;4.40;2.40;;;26.90;45.00;;;;;;5059895;28;20410;-63
2021/06/18 05:44:07;;;;;;;3.38;2.25;;;26.90;45.10;;;;;;5062263;28;20135;-63
2021/06/18 05:46:33;;;;;;;3.38;2.22;;;26.90;45.20;;;;;;5064440;28;20120;-61
2021/06/18 05:48:59;;;;;;;3.50;2.35;;;27.00;45.30;;;;;;5059165;28;20033;-63
2021/06/18 05:51:25;;;;;;;4.47;2.00;;;27.00;45.20;;;;;;5045140;28;20376;-65
2021/06/18 05:53:52;;;;;;;3.08;2.10;;;27.10;45.20;;;;;;5052153;28;20033;-62
2021/06/18 05:56:17;;;;;;;3.88;1.90;;;27.10;45.10;;;;;;5057367;28;20033;-62
2021/06/18 05:58:43;;;;;;;4.63;2.13;;;27.10;45.00;;;;;;5056873;28;20067;-62
2021/06/18 06:01:08;;;;;;;3.35;2.00;;;27.20;45.10;;;;;;5050241;28;20148;-63
2021/06/18 06:03:34;;;;;;;4.25;2.10;;;27.20;45.10;;;;;;5053359;28;20626;-61
2021/06/18 06:06:00;;;;;;;3.00;2.05;;;27.20;45.00;;;;;;5056851;28;20033;-62
2021/06/18 06:08:26;;;;;;;3.25;1.92;;;27.30;45.00;;;;;;5046520;28;20036;-62
2021/06/18 06:10:52;;;;;;;2.40;1.80;;;27.30;45.00;;;;;;5046487;28;20461;-62
2021/06/18 06:13:20;;;;;;;4.10;1.80;;;27.30;45.00;;;;;;5052753;28;20024;-61
2021/06/18 06:15:48;;;;;;;3.20;1.70;;;27.40;45.00;;;;;;5058283;28;20071;-63
2021/06/18 06:18:14;;;;;;;2.92;1.80;;;27.40;45.10;;;;;;5062458;28;20041;-63
2021/06/18 06:20:44;;;;;;;2.90;1.77;;;27.40;44.90;;;;;;5059018;28;20025;-62
2021/06/18 06:23:10;;;;;;;2.38;1.75;;;27.50;45.10;;;;;;5047109;28;20450;-62
2021/06/18 06:25:36;;;;;;;3.17;1.90;;;27.50;45.10;;;;;;5061993;28;20104;-62
2021/06/18 06:28:08;;;;;;;3.53;1.90;;;27.50;45.00;;;;;;5058729;28;20431;-62
2021/06/18 06:30:34;;;;;;;3.22;2.20;;;27.60;45.00;;;;;;5056861;28;20103;-63
2021/06/18 06:33:01;;;;;;;3.60;1.98;;;27.60;45.50;;;;;;5066398;28;20411;-63
2021/06/18 06:35:26;;;;;;;3.55;1.90;;;27.60;44.90;;;;;;5062234;28;20352;-62
2021/06/18 06:37:53;;;;;;;2.72;1.98;;;27.60;44.90;;;;;;5052299;28;20036;-63
2021/06/18 06:40:20;;;;;;;2.90;1.88;;;27.70;44.90;;;;;;5069772;28;20409;-62
2021/06/18 06:42:47;;;;;;;3.45;1.90;;;27.70;44.90;;;;;;5060147;28;20036;-62
2021/06/18 06:45:13;;;;;;;2.97;2.13;;;27.70;44.90;;;;;;5061120;28;20045;-62
2021/06/18 06:47:40;;;;;;;2.28;1.70;;;27.80;45.00;;;;;;5067725;28;20109;-63
2021/06/18 06:50:07;;;;;;;5.13;2.50;;;27.80;44.90;;;;;;5076593;28;20039;-63
2021/06/18 06:52:32;;;;;;;3.42;1.90;;;27.80;44.90;;;;;;5061712;28;20025;-62
2021/06/18 06:54:58;;;;;;;3.53;1.92;;;27.80;44.80;;;;;;5062443;28;20060;-63
2021/06/18 06:57:24;;;;;;;4.18;2.00;;;27.80;44.80;;;;;;5058544;28;20051;-63
2021/06/18 06:59:49;;;;;;;3.10;1.70;;;27.80;44.80;;;;;;5070402;28;20039;-63
2021/06/18 07:02:15;;;;;;;3.40;1.90;;;27.90;44.80;;;;;;5058740;28;20221;-64
2021/06/18 07:04:41;;;;;;;2.78;1.90;;;27.90;44.80;;;;;;5062304;28;20024;-64
2021/06/18 07:07:06;;;;;;;3.30;2.17;;;27.90;44.80;;;;;;5058816;28;20040;-63
2021/06/18 07:09:38;;;;;;;2.83;1.90;;;28.00;44.80;;;;;;5062815;28;20032;-63
2021/06/18 07:12:09;;;;;;;2.95;1.90;;;28.00;44.80;;;;;;5063036;28;20055;-65
2021/06/18 07:14:37;;;;;;;3.42;1.77;;;28.00;44.80;;;;;;5048564;28;20045;-64
2021/06/18 07:17:04;;;;;;;2.57;2.10;;;28.00;44.80;;;;;;5077583;28;20379;-64
2021/06/18 07:19:30;;;;;;;2.83;1.80;;;28.00;44.80;;;;;;5064458;28;20279;-63
2021/06/18 07:21:56;;;;;;;2.47;1.75;;;28.00;44.80;;;;;;5061614;28;20045;-63
2021/06/18 07:24:21;;;;;;;2.92;1.95;;;28.00;44.80;;;;;;5047522;28;20032;-64
2021/06/18 07:26:47;;;;;;;2.80;1.80;;;28.00;44.80;;;;;;5057990;28;20101;-64
2021/06/18 07:29:13;;;;;;;2.45;1.80;;;28.00;44.80;;;;;;5050235;28;20023;-63
2021/06/18 07:31:39;;;;;;;3.53;2.00;;;28.00;44.80;;;;;;5057055;28;20028;-63
2021/06/18 07:34:06;;;;;;;3.97;2.10;;;28.00;44.80;;;;;;5054725;28;20028;-63
2021/06/18 07:36:32;;;;;;;2.60;1.90;;;28.00;44.80;;;;;;5059807;28;20028;-63
2021/06/18 07:38:57;;;;;;;2.50;1.88;;;28.10;44.90;;;;;;5064905;28;20486;-63
2021/06/18 07:41:23;;;;;;;2.55;1.70;;;28.10;44.90;;;;;;5051783;28;20021;-63
2021/06/18 07:43:49;;;;;;;2.53;1.90;;;28.10;44.80;;;;;;5055732;28;20044;-64
2021/06/18 07:46:14;;;;;;;2.20;1.80;;;28.10;44.90;;;;;;5061434;28;20498;-63
2021/06/18 07:48:40;;;;;;;2.53;1.88;;;28.10;44.90;;;;;;5086429;28;20111;-63
2021/06/18 07:51:07;;;;;;;2.88;2.10;;;28.10;44.90;;;;;;5060518;28;20131;-63
2021/06/18 07:53:33;;;;;;;3.40;2.30;;;28.10;45.50;;;;;;5058290;28;20025;-63
2021/06/18 07:55:58;;;;;;;2.40;2.00;;;28.20;45.50;;;;;;5057915;28;20027;-63
2021/06/18 07:58:24;;;;;;;3.03;1.80;;;28.20;45.40;;;;;;5061750;28;20029;-63
2021/06/18 08:00:50;;;;;;;3.17;2.00;;;28.20;45.20;;;;;;5060776;28;20242;-62
2021/06/18 08:03:16;;;;;;;2.60;1.80;;;28.20;45.30;;;;;;5056357;28;20025;-62
2021/06/18 08:05:42;;;;;;;2.83;1.80;;;28.20;45.70;;;;;;5066558;28;20046;-62
2021/06/18 08:08:08;;;;;;;2.60;1.98;;;28.30;45.30;;;;;;5055668;28;20378;-63
2021/06/18 08:10:34;;;;;;;3.35;1.80;;;28.30;45.30;;;;;;5057326;28;20020;-62
2021/06/18 08:13:00;;;;;;;2.92;1.80;;;28.30;45.20;;;;;;5059154;28;20506;-62
2021/06/18 08:15:25;;;;;;;2.88;1.95;;;28.30;45.20;;;;;;5051426;28;20098;-62
2021/06/18 08:17:51;;;;;;;2.50;1.88;;;28.40;45.30;;;;;;5061260;28;20029;-62
2021/06/18 08:20:20;;;;;;;2.95;2.10;;;28.40;45.80;;;;;;5053833;28;20150;-62
2021/06/18 08:22:47;;;;;;;2.97;2.00;;;28.40;45.20;;;;;;5047601;28;20029;-63
2021/06/18 08:25:13;;;;;;;2.90;1.85;;;28.40;45.10;;;;;;5062933;28;20107;-61
2021/06/18 08:27:39;;;;;;;3.03;2.10;;;28.40;45.10;;;;;;5052826;28;20029;-63
2021/06/18 08:30:07;;;;;;;2.35;1.77;;;28.50;45.10;;;;;;5066322;28;20024;-64
2021/06/18 08:32:32;;;;;;;2.40;1.60;;;28.50;45.20;;;;;;5050780;28;20040;-64
2021/06/18 08:34:58;;;;;;;3.20;2.17;;;28.50;45.60;;;;;;5048707;28;20423;-63
2021/06/18 08:37:24;;;;;;;2.40;1.95;;;28.50;45.10;;;;;;5052378;28;20032;-63
2021/06/18 08:39:49;;;;;;;3.47;2.03;;;28.50;45.20;;;;;;5053287;28;20105;-64
2021/06/18 08:42:15;;;;;;;2.60;1.90;;;28.60;45.20;;;;;;5048638;28;20747;-63
2021/06/18 08:44:45;;;;;;;2.90;1.88;;;28.60;45.20;;;;;;5058925;28;20036;-63
2021/06/18 08:47:11;;;;;;;2.55;1.77;;;28.60;45.20;;;;;;5058129;28;20025;-63
2021/06/18 08:49:36;;;;;;;2.60;1.90;;;28.60;45.20;;;;;;5067449;28;20051;-63
2021/06/18 08:52:03;;;;;;;3.20;1.60;;;28.60;45.20;;;;;;5051077;28;20037;-63
2021/06/18 08:54:44;;;;;;;2.95;1.88;;;28.70;45.20;;;;;;5063014;28;20032;-64
2021/06/18 08:57:12;;;;;;;3.65;1.80;;;28.70;45.20;;;;;;5049889;28;20438;-61
2021/06/18 08:59:38;;;;;;;2.60;1.80;;;28.70;45.20;;;;;;5060312;28;20780;-61
2021/06/18 09:02:04;;;;;;;2.60;1.77;;;28.70;45.00;;;;;;5050083;28;20040;-61
2021/06/18 09:04:30;;;;;;;2.67;1.80;;;28.70;45.00;;;;;;5049788;28;20029;-61
2021/06/18 09:07:00;;;;;;;3.55;1.80;;;28.80;45.00;;;;;;5054369;28;20017;-63
2021/06/18 09:09:31;;;;;;;2.78;1.67;;;28.80;44.90;;;;;;5058506;28;20048;-64
2021/06/18 09:12:02;;;;;;;3.30;2.10;;;28.80;44.90;;;;;;5047891;28;20025;-63
2021/06/18 09:14:31;;;;;;;2.72;1.80;;;28.80;44.90;;;;;;5058642;28;20037;-63
2021/06/18 09:17:01;;;;;;;3.08;1.95;;;28.80;45.10;;;;;;5054749;28;21706;-62
2021/06/18 09:19:26;;;;;;;2.30;1.88;;;28.80;45.10;;;;;;5060035;28;20046;-62
2021/06/18 09:22:08;;;;;;;2.70;1.90;;;28.80;45.10;;;;;;5050943;28;20555;-63
2021/06/18 09:24:38;;;;;;;2.50;1.88;;;28.90;45.10;;;;;;5056507;28;20033;-63
2021/06/18 09:27:04;;;;;;;2.70;1.90;;;28.90;45.10;;;;;;5052854;28;20017;-63
2021/06/18 09:29:30;;;;;;;2.33;1.73;;;28.90;45.10;;;;;;5050968;28;20025;-63
2021/06/18 09:31:59;;;;;;;3.13;2.03;;;29.00;45.20;;;;;;5051060;28;20640;-64
2021/06/18 09:35:00;;;;;;;2.17;1.52;;;28.90;45.10;;;;;;5044854;28;20040;-62
2021/06/18 09:37:39;;;;;;;2.55;1.60;;;29.00;45.20;;;;;;5042250;28;20436;-62
2021/06/18 09:40:07;;;;;;;;;;;29.00;45.20;;;;;;5046776;28;20024;-63
2021/06/18 09:42:46;;;;;;;2.75;1.83;;;29.00;45.30;;;;;;5054739;28;19915;-63
2021/06/18 09:45:15;;;;;;;2.33;1.85;;;29.10;45.20;;;;;;5042923;28;20191;-64
2021/06/18 09:47:41;;;;;;;2.88;1.70;;;29.10;45.30;;;;;;5057508;28;20045;-63
2021/06/18 09:50:27;;;;;;;2.78;1.75;;;29.10;45.30;;;;;;5059526;28;20028;-63
2021/06/18 09:53:10;;;;;;;3.47;1.60;;;29.10;45.20;;;;;;5060074;28;20036;-63
2021/06/18 09:55:36;;;;;;;2.03;1.60;;;29.10;45.20;;;;;;5050344;28;20112;-62
2021/06/18 09:58:03;;;;;;;2.60;1.70;;;29.20;45.30;;;;;;5058975;28;20108;-62
2021/06/18 10:00:28;;;;;;;2.00;1.67;;;29.10;45.30;;;;;;5056349;28;20093;-64
2021/06/18 10:02:55;;;;;;;2.20;1.60;;;29.20;45.30;;;;;;5055916;28;20499;-64
2021/06/18 10:05:22;;;;;;;2.40;1.80;;;29.20;45.40;;;;;;5046638;28;20029;-64
2021/06/18 10:07:50;;;;;;;2.53;1.77;;;29.20;45.30;;;;;;5059665;28;20048;-63
2021/06/18 10:10:20;;;;;;;3.60;1.73;;;29.20;45.30;;;;;;5048898;28;20555;-64
2021/06/18 10:12:47;;;;;;;2.70;1.70;;;29.30;45.40;;;;;;5059080;28;20329;-64
2021/06/18 10:15:23;;;;;;;2.72;1.77;;;29.30;45.40;;;;;;5073279;28;20484;-64
2021/06/18 10:17:51;;;;;;;2.38;1.73;;;29.30;45.30;;;;;;5051145;28;20082;-63
2021/06/18 10:20:26;;;;;;;2.60;1.67;;;29.30;45.30;;;;;;5057635;28;20028;-64
2021/06/18 10:23:09;;;;;;;2.05;1.63;;;29.30;45.30;;;;;;5056959;28;20037;-63
2021/06/18 10:25:43;;;;;;;2.53;1.65;;;29.30;45.30;;;;;;5063042;28;20032;-64
2021/06/18 10:28:10;;;;;;;2.17;1.70;;;29.40;45.30;;;;;;5059447;28;20104;-63
2021/06/18 10:30:57;;;;;;;3.22;1.70;;;29.40;45.30;;;;;;5061607;28;20036;-64
2021/06/18 10:33:26;;;;;;;2.28;1.67;;;29.40;45.30;;;;;;5064238;28;20040;-63
2021/06/18 10:36:05;;;;;;;2.20;1.65;;;29.40;45.30;;;;;;5064528;28;20563;-63
2021/06/18 10:38:33;;;;;;;2.70;1.85;;;29.40;45.30;;;;;;5048669;28;20541;-64
2021/06/18 10:41:24;;;;;;;2.35;1.60;;;29.40;45.30;;;;;;5060733;28;20059;-63
2021/06/18 10:43:58;;;;;;;4.10;1.80;;;29.50;45.40;;;;;;5055335;28;20175;-64
2021/06/18 10:46:33;;;;;;;2.25;1.60;;;29.50;45.50;;;;;;5051649;28;20165;-63
2021/06/18 10:49:07;;;;;;;2.00;1.55;;;29.50;45.40;;;;;;5062455;28;20092;-63
2021/06/18 10:51:34;;;;;;;2.50;1.75;;;29.50;45.30;;;;;;5061567;28;20024;-63
2021/06/18 10:54:04;;;;;;;2.08;1.75;;;29.50;45.30;;;;;;5049181;28;20125;-64
2021/06/18 10:56:45;;;;;;;2.20;1.58;;;29.50;45.30;;;;;;5050347;28;20504;-62
2021/06/18 10:59:34;;;;;;;2.10;1.60;;;29.60;45.30;;;;;;5052831;28;20093;-63
2021/06/18 11:02:20;;;;;;;2.20;1.80;;;29.60;45.20;;;;;;5055145;28;20207;-64
2021/06/18 11:04:45;;;;;;;2.25;1.70;;;29.60;45.20;;;;;;5059280;28;20108;-63
2021/06/18 11:07:30;;;;;;;2.50;1.70;;;29.60;45.30;;;;;;5054588;28;20123;-63
2021/06/18 11:10:00;;;;;;;2.10;1.63;;;29.60;45.30;;;;;;5048939;28;20563;-63
2021/06/18 11:12:26;;;;;;;1.98;1.52;;;29.60;45.30;;;;;;5046501;28;20036;-63
2021/06/18 11:14:53;;;;;;;1.80;1.40;;;29.70;45.30;;;;;;5050358;28;20021;-62
2021/06/18 11:17:37;;;;;;;2.58;1.65;;;29.70;45.40;;;;;;5056180;28;20357;-64
2021/06/18 11:20:15;;;;;;;2.15;1.75;;;29.70;45.40;;;;;;5052726;28;20108;-64
2021/06/18 11:22:53;;;;;;;2.50;1.50;;;29.70;45.30;;;;;;5064662;28;20020;-63
2021/06/18 11:25:40;;;;;;;1.97;1.50;;;29.70;45.30;;;;;;5059025;28;20885;-63
2021/06/18 11:28:21;;;;;;;1.83;1.40;;;29.70;45.40;;;;;;5048650;28;20377;-63
2021/06/18 11:30:56;;;;;;;3.20;1.90;;;29.70;45.30;;;;;;5059833;28;20037;-64
2021/06/18 11:33:39;;;;;;;3.00;1.58;;;29.70;45.10;;;;;;5064848;28;20573;-64
2021/06/18 11:36:20;;;;;;;2.17;1.55;;;29.70;45.10;;;;;;5062395;28;20107;-64
2021/06/18 11:38:50;;;;;;;2.05;1.60;;;29.70;45.10;;;;;;5051418;28;20021;-62
2021/06/18 11:41:25;;;;;;;2.10;1.60;;;29.70;45.10;;;;;;5061083;28;20032;-63
2021/06/18 11:43:53;;;;;;;2.25;1.63;;;29.70;45.10;;;;;;5057977;28;20464;-64
2021/06/18 11:46:20;;;;;;;1.90;1.50;;;29.70;45.20;;;;;;5060683;28;20075;-64
2021/06/18 11:48:46;;;;;;;2.08;1.50;;;29.70;45.20;;;;;;5073716;28;20108;-62
2021/06/18 11:51:28;;;;;;;2.00;1.58;;;29.70;45.20;;;;;;5054590;28;20029;-62
2021/06/18 11:53:54;;;;;;;1.80;1.40;;;29.60;45.10;;;;;;5046490;28;20025;-64
2021/06/18 11:56:20;;;;;;;2.92;1.45;;;29.60;45.70;;;;;;5058353;28;20344;-62
2021/06/18 11:58:47;;;;;;;1.77;1.40;;;29.60;45.20;;;;;;5066779;28;20044;-63
2021/06/18 12:01:14;;;;;;;1.55;1.30;;;29.60;45.20;;;;;;5056383;28;20048;-63
2021/06/18 12:03:41;;;;;;;1.95;1.42;;;29.60;45.30;;;;;;5061597;28;20627;-63
2021/06/18 12:06:19;;;;;;;1.40;1.17;;;29.60;45.30;;;;;;5047198;28;20068;-63
2021/06/18 12:09:11;;;;;;;2.42;1.50;;;29.60;45.30;;;;;;5058659;28;20531;-63
2021/06/18 12:11:56;;;;;;;1.85;1.50;;;29.60;45.30;;;;;;5048570;28;20033;-63
2021/06/18 12:14:22;;;;;;;1.60;1.20;;;29.60;45.30;;;;;;5063576;28;20031;-63
2021/06/18 12:16:50;;;;;;;1.88;1.40;;;29.50;45.30;;;;;;5053070;28;20036;-62
2021/06/18 12:19:20;;;;;;;1.73;1.33;;;29.50;45.30;;;;;;5062137;28;20360;-63
2021/06/18 12:22:08;;;;;;;1.95;1.30;;;29.50;45.40;;;;;;5052690;28;20025;-63
2021/06/18 12:24:35;;;;;;;1.58;1.40;;;29.50;45.40;;;;;;5056783;28;20032;-63
2021/06/18 12:27:03;;;;;;;1.65;1.27;;;29.50;45.50;;;;;;5063175;28;20056;-62
2021/06/18 12:29:30;;;;;;;1.77;1.30;;;29.50;46.00;;;;;;5065694;28;20044;-64
2021/06/18 12:31:57;;;;;;;1.75;1.20;;;29.50;45.50;;;;;;5057655;28;20038;-64
2021/06/18 12:34:25;;;;;;;1.50;1.27;;;29.50;45.50;;;;;;5049455;28;20029;-64
2021/06/18 12:37:05;;;;;;;1.63;1.30;;;29.50;45.50;;;;;;5057561;28;20082;-63
2021/06/18 12:39:46;;;;;;;1.48;1.13;;;29.50;45.50;;;;;;5055250;28;20082;-63
2021/06/18 12:42:18;;;;;;;1.40;1.20;;;29.50;45.60;;;;;;5051062;28;20131;-63
2021/06/18 12:44:43;;;;;;;1.50;1.27;;;29.50;45.60;;;;;;5056427;28;20130;-64
2021/06/18 12:47:11;;;;;;;1.27;1.05;;;29.50;45.60;;;;;;5060967;28;20036;-64
2021/06/18 12:49:37;;;;;;;1.40;1.13;;;29.50;45.70;;;;;;5076468;28;20163;-63
2021/06/18 12:52:11;;;;;;;1.50;1.20;;;29.40;45.60;;;;;;5050103;28;20167;-63
2021/06/18 12:54:37;;;;;;;1.60;1.08;;;29.50;45.70;;;;;;5048186;28;20044;-63
2021/06/18 12:57:03;;;;;;;1.33;1.10;;;29.50;45.70;;;;;;5061440;28;20058;-64